createdAt,value
2018-12-06T00:01:38.233Z,87.62
2018-12-06T00:04:06.565Z,87.78
2018-12-06T00:06:34.887Z,87.98
2018-12-06T00:09:03.283Z,87.81
2018-12-06T00:11:31.602Z,87.86
2018-12-06T00:13:59.899Z,87.98
2018-12-06T00:16:28.259Z,87.93
2018-12-06T00:19:10.004Z,87.69
2018-12-06T00:21:38.362Z,87.66
2018-12-06T00:24:06.671Z,87.86
2018-12-06T00:26:35.217Z,88.04
2018-12-06T00:29:03.540Z,87.72
2018-12-06T00:31:31.839Z,87.91
2018-12-06T00:34:00.199Z,88.01
2018-12-06T00:36:28.545Z,88.06
2018-12-06T00:38:56.904Z,88.33
2018-12-06T00:41:25.310Z,87.89
2018-12-06T00:43:53.690Z,88.04
2018-12-06T00:46:22.101Z,88.00
2018-12-06T00:48:50.549Z,88.22
2018-12-06T00:51:19.137Z,88.03
2018-12-06T00:53:47.474Z,87.91
2018-12-06T00:56:15.750Z,87.85
2018-12-06T00:58:44.062Z,88.18
2018-12-06T01:01:12.750Z,88.11
2018-12-06T01:03:41.179Z,87.73
2018-12-06T01:06:09.525Z,87.77
2018-12-06T01:08:37.932Z,87.91
2018-12-06T01:11:06.239Z,87.81
2018-12-06T01:13:34.549Z,87.86
2018-12-06T01:16:02.869Z,87.77
2018-12-06T01:18:31.211Z,87.57
2018-12-06T01:20:59.516Z,87.68
2018-12-06T01:23:27.919Z,87.67
2018-12-06T01:25:56.217Z,87.84
2018-12-06T01:28:24.550Z,87.96
2018-12-06T01:30:52.915Z,87.63
2018-12-06T01:33:21.295Z,87.71
2018-12-06T01:35:49.604Z,87.51
2018-12-06T01:38:17.917Z,87.47
2018-12-06T01:40:46.246Z,87.46
2018-12-06T01:43:14.633Z,87.53
2018-12-06T01:45:42.931Z,87.63
2018-12-06T01:48:11.543Z,87.49
2018-12-06T01:50:39.838Z,87.51
2018-12-06T01:53:08.209Z,87.36
2018-12-06T01:55:36.578Z,87.44
2018-12-06T01:58:04.877Z,87.35
2018-12-06T02:00:33.240Z,87.59
2018-12-06T02:03:01.550Z,87.45
2018-12-06T02:05:29.857Z,87.08
2018-12-06T02:07:58.157Z,87.00
2018-12-06T02:10:26.441Z,87.23
2018-12-06T02:12:54.739Z,87.50
2018-12-06T02:15:23.138Z,87.55
2018-12-06T02:17:51.564Z,87.55
2018-12-06T02:20:19.953Z,86.99
2018-12-06T02:22:48.249Z,87.03
2018-12-06T02:25:16.550Z,87.17
2018-12-06T02:27:44.845Z,87.15
2018-12-06T02:30:13.463Z,87.20
2018-12-06T02:32:41.951Z,87.43
2018-12-06T02:35:10.330Z,87.25
2018-12-06T02:37:38.629Z,87.30
2018-12-06T02:40:07.845Z,87.05
2018-12-06T02:42:36.193Z,87.25
2018-12-06T02:45:05.883Z,86.69
2018-12-06T02:47:34.171Z,86.87
2018-12-06T02:50:02.553Z,86.87
2018-12-06T02:52:30.843Z,86.79
2018-12-06T02:54:59.249Z,86.84
2018-12-06T02:57:27.524Z,86.83
2018-12-06T02:59:55.865Z,86.49
2018-12-06T03:02:24.179Z,86.91
2018-12-06T03:04:52.512Z,86.49
2018-12-06T03:07:20.817Z,86.46
2018-12-06T03:09:49.113Z,86.29
2018-12-06T03:12:17.407Z,86.45
2018-12-06T03:14:45.849Z,86.58
2018-12-06T03:17:14.226Z,86.56
2018-12-06T03:19:42.509Z,86.89
2018-12-06T03:22:11.022Z,86.40
2018-12-06T03:24:39.302Z,86.80
2018-12-06T03:27:07.664Z,86.69
2018-12-06T03:29:36.081Z,86.30
2018-12-06T03:32:04.586Z,86.38
2018-12-06T03:34:33.072Z,86.69
2018-12-06T03:37:01.547Z,86.08
2018-12-06T03:39:29.927Z,86.34
2018-12-06T03:41:58.457Z,85.94
2018-12-06T03:44:26.887Z,86.20
2018-12-06T03:46:55.402Z,85.82
2018-12-06T03:49:23.682Z,86.03
2018-12-06T03:51:51.985Z,85.62
2018-12-06T03:54:20.274Z,85.65
2018-12-06T03:56:48.560Z,85.70
2018-12-06T03:59:17.049Z,84.98
2018-12-06T04:01:45.429Z,85.18
2018-12-06T04:04:13.765Z,85.32
2018-12-06T04:06:42.095Z,85.09
2018-12-06T04:09:10.489Z,84.75
2018-12-06T04:11:38.842Z,84.53
2018-12-06T04:14:07.147Z,84.26
2018-12-06T04:16:35.472Z,84.01
2018-12-06T04:19:03.782Z,83.72
2018-12-06T04:21:32.250Z,83.46
2018-12-06T04:24:00.584Z,83.58
2018-12-06T04:26:28.971Z,82.92
2018-12-06T04:28:57.424Z,83.28
2018-12-06T04:31:25.757Z,83.02
2018-12-06T04:33:54.170Z,82.39
2018-12-06T04:36:22.486Z,82.41
2018-12-06T04:38:50.884Z,82.22
2018-12-06T04:41:19.190Z,82.37
2018-12-06T04:43:47.527Z,81.78
2018-12-06T04:46:15.874Z,81.82
2018-12-06T04:48:44.243Z,81.69
2018-12-06T04:51:12.688Z,81.85
2018-12-06T04:53:41.137Z,81.06
2018-12-06T04:56:09.589Z,81.21
2018-12-06T04:58:38.018Z,80.92
2018-12-06T05:01:06.313Z,80.39
2018-12-06T05:03:34.843Z,80.36
2018-12-06T05:06:03.238Z,80.37
2018-12-06T05:08:31.571Z,80.15
2018-12-06T05:10:59.880Z,79.99
2018-12-06T05:13:28.231Z,79.59
2018-12-06T05:15:56.581Z,80.13
2018-12-06T05:18:25.000Z,79.96
2018-12-06T05:20:53.315Z,79.68
2018-12-06T05:23:21.643Z,79.57
2018-12-06T05:25:49.963Z,79.64
2018-12-06T05:28:18.416Z,79.64
2018-12-06T05:30:46.737Z,79.20
2018-12-06T05:33:15.071Z,79.20
2018-12-06T05:35:43.441Z,79.27
2018-12-06T05:38:11.762Z,78.96
2018-12-06T05:40:40.108Z,78.71
2018-12-06T05:43:08.433Z,78.85
2018-12-06T05:45:36.842Z,78.77
2018-12-06T05:48:05.148Z,78.44
2018-12-06T05:50:33.493Z,78.28
2018-12-06T05:53:01.791Z,78.58
2018-12-06T05:55:31.156Z,78.04
2018-12-06T05:57:59.588Z,78.34
2018-12-06T06:00:27.995Z,77.96
2018-12-06T06:02:56.368Z,78.04
2018-12-06T06:05:24.710Z,77.70
2018-12-06T06:07:53.036Z,77.75
2018-12-06T06:10:21.362Z,77.36
2018-12-06T06:12:49.665Z,77.23
2018-12-06T06:15:17.992Z,77.21
2018-12-06T06:17:46.304Z,76.76
2018-12-06T06:20:14.624Z,77.02
2018-12-06T06:22:42.936Z,76.74
2018-12-06T06:25:11.338Z,76.79
2018-12-06T06:27:39.674Z,76.63
2018-12-06T06:30:08.255Z,76.32
2018-12-06T06:32:36.560Z,76.11
2018-12-06T06:35:05.724Z,76.19
2018-12-06T06:37:34.029Z,76.44
2018-12-06T06:40:02.623Z,76.24
2018-12-06T06:42:30.940Z,76.57
2018-12-06T06:44:59.273Z,76.15
2018-12-06T06:47:28.580Z,75.84
2018-12-06T06:49:57.121Z,76.00
2018-12-06T06:52:25.449Z,75.51
2018-12-06T06:54:53.784Z,75.71
2018-12-06T06:57:22.134Z,75.73
2018-12-06T06:59:50.576Z,75.65
2018-12-06T07:02:18.960Z,75.67
2018-12-06T07:04:47.282Z,75.53
2018-12-06T07:07:15.636Z,75.90
2018-12-06T07:09:43.955Z,75.83
2018-12-06T07:12:12.264Z,76.03
2018-12-06T07:14:40.573Z,75.82
2018-12-06T07:17:08.887Z,75.95
2018-12-06T07:19:37.202Z,76.01
2018-12-06T07:22:05.648Z,76.00
2018-12-06T07:24:33.995Z,76.10
2018-12-06T07:27:02.325Z,76.11
2018-12-06T07:29:30.620Z,75.88
2018-12-06T07:31:59.014Z,75.88
2018-12-06T07:34:27.315Z,75.99
2018-12-06T07:36:55.639Z,75.72
2018-12-06T07:39:23.943Z,75.19
2018-12-06T07:41:52.272Z,75.37
2018-12-06T07:44:20.705Z,75.32
2018-12-06T07:46:49.039Z,75.15
2018-12-06T07:49:17.361Z,75.09
2018-12-06T07:51:45.709Z,74.66
2018-12-06T07:54:14.138Z,74.86
2018-12-06T07:56:42.559Z,74.99
2018-12-06T07:59:10.944Z,74.46
2018-12-06T08:01:39.259Z,74.47
2018-12-06T08:04:07.629Z,74.05
2018-12-06T08:06:36.088Z,74.19
2018-12-06T08:09:06.877Z,73.84
2018-12-06T08:11:35.211Z,74.29
2018-12-06T08:14:03.677Z,73.56
2018-12-06T08:16:32.571Z,72.81
2018-12-06T08:19:00.931Z,72.12
2018-12-06T08:21:29.248Z,72.12
2018-12-06T08:23:57.721Z,72.18
2018-12-06T08:26:26.080Z,71.86
2018-12-06T08:28:54.389Z,72.57
2018-12-06T08:31:22.755Z,72.39
2018-12-06T08:33:51.095Z,72.33
2018-12-06T08:36:19.451Z,72.40
2018-12-06T08:38:47.885Z,72.18
2018-12-06T08:41:16.283Z,71.66
2018-12-06T08:43:44.651Z,71.81
2018-12-06T08:46:12.953Z,71.71
2018-12-06T08:48:41.298Z,71.30
2018-12-06T08:51:09.611Z,71.63
2018-12-06T08:53:37.958Z,70.77
2018-12-06T08:56:06.265Z,70.88
2018-12-06T08:58:34.623Z,71.10
2018-12-06T09:01:02.919Z,70.63
2018-12-06T09:03:31.251Z,70.54
2018-12-06T09:05:59.564Z,70.50
2018-12-06T09:08:27.927Z,70.13
2018-12-06T09:10:56.231Z,69.97
2018-12-06T09:13:24.551Z,69.49
2018-12-06T09:15:52.862Z,69.47
2018-12-06T09:18:21.198Z,69.45
2018-12-06T09:20:49.737Z,68.98
2018-12-06T09:23:18.068Z,69.44
2018-12-06T09:25:46.435Z,68.96
2018-12-06T09:28:14.889Z,68.85
2018-12-06T09:30:43.319Z,68.46
2018-12-06T09:33:11.648Z,68.94
2018-12-06T09:35:40.753Z,68.84
2018-12-06T09:38:09.209Z,68.54
2018-12-06T09:40:37.576Z,68.59
2018-12-06T09:43:06.043Z,68.92
2018-12-06T09:45:34.371Z,68.44
2018-12-06T09:48:02.709Z,68.35
2018-12-06T09:50:31.026Z,68.45
2018-12-06T09:52:59.353Z,68.91
2018-12-06T09:55:27.670Z,68.58
2018-12-06T09:57:55.979Z,68.50
2018-12-06T10:00:24.301Z,68.39
2018-12-06T10:02:52.616Z,68.79
2018-12-06T10:05:20.948Z,68.55
2018-12-06T10:07:49.248Z,68.59
2018-12-06T10:10:17.570Z,68.32
2018-12-06T10:12:45.895Z,68.47
2018-12-06T10:15:14.351Z,68.40
2018-12-06T10:17:42.663Z,68.17
2018-12-06T10:20:11.117Z,68.68
2018-12-06T10:22:39.421Z,67.88
2018-12-06T10:25:07.856Z,68.50
2018-12-06T10:27:36.163Z,68.40
2018-12-06T10:30:06.879Z,68.34
2018-12-06T10:32:35.271Z,68.55
2018-12-06T10:35:03.773Z,68.49
2018-12-06T10:37:32.085Z,68.86
2018-12-06T10:40:00.426Z,68.20
2018-12-06T10:42:28.823Z,68.71
2018-12-06T10:44:57.134Z,68.23
2018-12-06T10:47:25.465Z,68.51
2018-12-06T10:49:53.770Z,69.13
2018-12-06T10:52:22.103Z,68.53
2018-12-06T10:54:50.428Z,68.70
2018-12-06T10:57:18.758Z,68.94
2018-12-06T10:59:47.071Z,68.46
2018-12-06T11:02:20.905Z,68.28
2018-12-06T11:04:49.209Z,68.49
2018-12-06T11:07:17.557Z,67.72
2018-12-06T11:09:45.970Z,68.20
2018-12-06T11:12:14.292Z,67.86
2018-12-06T11:14:42.666Z,68.20
2018-12-06T11:17:11.033Z,68.49
2018-12-06T11:19:39.360Z,68.11
2018-12-06T11:22:07.876Z,67.98
2018-12-06T11:25:06.424Z,67.86
2018-12-06T11:27:34.749Z,67.61
2018-12-06T11:30:09.612Z,67.71
2018-12-06T11:32:37.932Z,67.53
2018-12-06T11:35:06.424Z,67.60
2018-12-06T11:37:34.724Z,67.74
2018-12-06T11:40:05.138Z,67.93
2018-12-06T11:42:33.428Z,68.18
2018-12-06T11:45:01.749Z,68.16
2018-12-06T11:47:30.115Z,68.54
2018-12-06T11:49:58.484Z,68.49
2018-12-06T11:52:26.781Z,68.71
2018-12-06T11:54:55.112Z,68.53
2018-12-06T11:57:23.422Z,68.80
2018-12-06T11:59:51.753Z,68.53
2018-12-06T12:02:20.040Z,68.79
2018-12-06T12:04:48.353Z,69.34
2018-12-06T12:07:16.665Z,69.33
2018-12-06T12:09:44.976Z,69.60
2018-12-06T12:12:13.355Z,69.40
2018-12-06T12:14:41.668Z,69.40
2018-12-06T12:17:09.975Z,70.17
2018-12-06T12:19:38.292Z,69.77
2018-12-06T12:22:06.591Z,70.20
2018-12-06T12:24:34.916Z,70.09
2018-12-06T12:27:03.211Z,70.32
2018-12-06T12:29:31.619Z,70.03
2018-12-06T12:31:59.927Z,70.90
2018-12-06T12:34:28.267Z,70.75
2018-12-06T12:36:56.573Z,70.74
2018-12-06T12:39:24.900Z,71.31
2018-12-06T12:41:53.195Z,70.98
2018-12-06T12:44:21.508Z,71.50
2018-12-06T12:46:49.821Z,71.19
2018-12-06T12:49:18.151Z,71.53
2018-12-06T12:51:46.446Z,71.67
2018-12-06T12:54:14.768Z,71.62
2018-12-06T12:56:43.176Z,71.93
2018-12-06T12:59:11.477Z,72.03
2018-12-06T13:01:39.791Z,72.16
2018-12-06T13:04:08.170Z,72.31
2018-12-06T13:06:36.459Z,72.48
2018-12-06T13:09:06.776Z,73.37
2018-12-06T13:11:35.077Z,72.82
2018-12-06T13:14:03.435Z,73.19
2018-12-06T13:16:31.803Z,73.24
2018-12-06T13:19:00.105Z,73.17
2018-12-06T13:21:28.655Z,72.99
2018-12-06T13:23:56.961Z,73.90
2018-12-06T13:26:25.328Z,73.60
2018-12-06T13:28:53.643Z,73.93
2018-12-06T13:31:21.940Z,74.42
2018-12-06T13:33:50.354Z,74.67
2018-12-06T13:36:18.655Z,74.65
2018-12-06T13:38:47.017Z,74.54
2018-12-06T13:41:15.387Z,75.04
2018-12-06T13:43:43.688Z,75.28
2018-12-06T13:46:12.242Z,75.00
2018-12-06T13:48:40.626Z,74.68
2018-12-06T13:51:08.915Z,75.47
2018-12-06T13:53:37.232Z,76.09
2018-12-06T13:56:05.652Z,75.75
2018-12-06T13:58:34.121Z,75.38
2018-12-06T14:01:02.727Z,75.71
2018-12-06T14:03:31.217Z,75.70
2018-12-06T14:05:59.532Z,75.74
2018-12-06T14:08:27.836Z,76.10
2018-12-06T14:10:56.167Z,76.59
2018-12-06T14:13:24.478Z,76.41
2018-12-06T14:15:52.770Z,76.67
2018-12-06T14:18:21.088Z,76.57
2018-12-06T14:20:49.409Z,76.92
2018-12-06T14:23:17.965Z,77.00
2018-12-06T14:25:46.364Z,77.20
2018-12-06T14:28:14.673Z,77.77
2018-12-06T14:30:42.992Z,78.02
2018-12-06T14:33:11.294Z,78.06
2018-12-06T14:35:39.693Z,78.71
2018-12-06T14:38:08.035Z,78.70
2018-12-06T14:40:36.339Z,79.51
2018-12-06T14:43:04.782Z,79.35
2018-12-06T14:45:33.362Z,79.88
2018-12-06T14:48:01.674Z,79.73
2018-12-06T14:50:29.987Z,80.32
2018-12-06T14:52:58.290Z,80.15
2018-12-06T14:55:26.650Z,80.10
2018-12-06T14:57:54.949Z,80.40
2018-12-06T15:00:23.329Z,80.09
2018-12-06T15:02:51.629Z,79.96
2018-12-06T15:05:19.942Z,80.27
2018-12-06T15:07:48.261Z,80.33
2018-12-06T15:10:16.567Z,80.59
2018-12-06T15:12:44.895Z,80.34
2018-12-06T15:15:13.188Z,80.33
2018-12-06T15:17:41.515Z,80.50
2018-12-06T15:20:09.879Z,80.92
2018-12-06T15:22:38.229Z,81.26
2018-12-06T15:25:06.968Z,81.88
2018-12-06T15:27:35.397Z,82.21
2018-12-06T15:30:05.725Z,82.57
2018-12-06T15:32:34.049Z,83.26
2018-12-06T15:35:02.361Z,83.79
2018-12-06T15:37:30.660Z,83.93
2018-12-06T15:39:58.985Z,84.08
2018-12-06T15:42:27.298Z,84.52
2018-12-06T15:44:55.618Z,85.44
2018-12-06T15:47:23.912Z,85.54
2018-12-06T15:49:52.235Z,86.53
2018-12-06T15:52:20.546Z,86.73
2018-12-06T15:54:48.995Z,86.99
2018-12-06T15:57:17.301Z,88.07
2018-12-06T15:59:45.611Z,88.46
2018-12-06T16:02:13.916Z,89.18
2018-12-06T16:04:42.235Z,89.86
2018-12-06T16:07:10.566Z,89.67
2018-12-06T16:09:38.870Z,90.61
2018-12-06T16:12:07.179Z,90.68
2018-12-06T16:14:35.499Z,91.06
2018-12-06T16:17:03.792Z,92.02
2018-12-06T16:19:32.123Z,93.04
2018-12-06T16:22:00.443Z,92.96
2018-12-06T16:24:28.763Z,93.01
2018-12-06T16:26:57.078Z,93.56
2018-12-06T16:29:25.397Z,93.94
2018-12-06T16:31:53.796Z,94.17
2018-12-06T16:34:22.124Z,94.98
2018-12-06T16:36:50.436Z,95.19
2018-12-06T16:39:18.889Z,95.30
2018-12-06T16:41:46.756Z,95.74
2018-12-06T16:44:14.625Z,96.53
2018-12-06T16:46:42.484Z,96.25
2018-12-06T16:49:10.536Z,97.12
2018-12-06T16:51:38.418Z,97.12
2018-12-06T16:54:06.301Z,97.55
2018-12-06T16:56:34.221Z,97.62
2018-12-06T16:59:02.130Z,97.60
2018-12-06T17:01:30.071Z,98.21
2018-12-06T17:03:57.937Z,98.24
2018-12-06T17:06:25.815Z,98.34
2018-12-06T17:08:53.673Z,98.43
2018-12-06T17:11:21.546Z,98.16
2018-12-06T17:13:49.408Z,98.77
2018-12-06T17:16:17.289Z,98.96
2018-12-06T17:18:45.662Z,98.99
2018-12-06T17:21:14.041Z,99.39
2018-12-06T17:23:42.352Z,99.50
2018-12-06T17:26:10.247Z,100.00
2018-12-06T17:28:38.568Z,99.42
2018-12-06T17:31:06.945Z,99.10
2018-12-06T17:33:35.262Z,99.74
2018-12-06T17:36:03.596Z,99.59
2018-12-06T17:38:31.892Z,99.68
2018-12-06T17:41:00.215Z,100.00
2018-12-06T17:43:28.511Z,100.00
2018-12-06T17:45:56.838Z,100.00
2018-12-06T17:48:25.250Z,100.00
2018-12-06T17:50:53.581Z,99.94
2018-12-06T17:53:21.879Z,100.00
2018-12-06T17:55:53.207Z,100.00
2018-12-06T17:58:21.575Z,100.00
2018-12-06T18:00:49.959Z,100.00
2018-12-06T18:03:18.269Z,100.00
2018-12-06T18:05:46.609Z,100.00
2018-12-06T18:08:14.951Z,100.00
2018-12-06T18:10:43.267Z,100.00
2018-12-06T18:13:11.567Z,100.00
2018-12-06T18:15:39.532Z,100.00
2018-12-06T18:18:07.451Z,100.00
2018-12-06T18:20:35.366Z,100.00
2018-12-06T18:23:03.226Z,100.00
2018-12-06T18:25:31.114Z,100.00
2018-12-06T18:27:58.986Z,100.00
2018-12-06T18:30:27.304Z,100.00
2018-12-06T18:32:55.635Z,100.00
2018-12-06T18:35:23.494Z,100.00
2018-12-06T18:37:51.397Z,100.00
2018-12-06T18:40:19.820Z,100.00
2018-12-06T18:42:47.736Z,100.00
2018-12-06T18:45:15.593Z,100.00
2018-12-06T18:47:43.454Z,100.00
2018-12-06T18:50:11.367Z,100.00
2018-12-06T18:52:39.243Z,100.00
2018-12-06T18:55:07.111Z,100.00
2018-12-06T18:57:35.486Z,100.00
2018-12-06T19:00:04.971Z,100.00
2018-12-06T19:02:33.336Z,100.00
2018-12-06T19:05:01.633Z,100.00
2018-12-06T19:07:30.028Z,100.00
2018-12-06T19:09:58.382Z,100.00
2018-12-06T19:12:26.693Z,100.00
2018-12-06T19:14:55.014Z,100.00
2018-12-06T19:17:23.351Z,100.00
2018-12-06T19:19:51.676Z,100.00
2018-12-06T19:22:19.988Z,100.00
2018-12-06T19:24:48.319Z,100.00
2018-12-06T19:27:16.638Z,100.00
2018-12-06T19:29:44.948Z,100.00
2018-12-06T19:32:13.329Z,100.00
2018-12-06T19:34:41.936Z,100.00
2018-12-06T19:37:10.275Z,100.00
2018-12-06T19:39:38.600Z,100.00
2018-12-06T19:42:06.934Z,100.00
2018-12-06T19:44:35.256Z,100.00
2018-12-06T19:47:03.580Z,100.00
2018-12-06T19:49:31.900Z,100.00
2018-12-06T19:52:00.372Z,100.00
2018-12-06T19:54:28.691Z,100.00
2018-12-06T19:56:57.001Z,100.00
2018-12-06T19:59:25.338Z,100.00
2018-12-06T20:01:53.642Z,100.00
2018-12-06T20:04:21.980Z,100.00
2018-12-06T20:06:50.286Z,100.00
2018-12-06T20:09:18.616Z,100.00
2018-12-06T20:11:46.927Z,100.00
2018-12-06T20:14:15.261Z,100.00
2018-12-06T20:16:43.572Z,100.00
2018-12-06T20:19:11.896Z,100.00
2018-12-06T20:21:40.223Z,100.00
2018-12-06T20:24:08.553Z,100.00
2018-12-06T20:26:36.894Z,100.00
2018-12-06T20:29:05.286Z,100.00
2018-12-06T20:31:33.632Z,100.00
2018-12-06T20:34:01.956Z,100.00
2018-12-06T20:36:30.281Z,100.00
2018-12-06T20:38:58.607Z,100.00
2018-12-06T20:41:26.928Z,100.00
2018-12-06T20:43:55.256Z,100.00
2018-12-06T20:46:23.569Z,100.00
2018-12-06T20:48:51.904Z,100.00
2018-12-06T20:51:20.228Z,100.00
2018-12-06T20:53:48.564Z,100.00
2018-12-06T20:56:16.888Z,100.00
2018-12-06T20:58:45.211Z,100.00
2018-12-06T21:01:13.530Z,100.00
2018-12-06T21:03:41.833Z,100.00
2018-12-06T21:06:10.163Z,100.00
2018-12-06T21:08:38.484Z,100.00
2018-12-06T21:11:06.802Z,100.00
2018-12-06T21:13:35.151Z,100.00
2018-12-06T21:16:03.528Z,100.00
2018-12-06T21:18:31.843Z,100.00
2018-12-06T21:21:00.176Z,100.00
2018-12-06T21:23:28.526Z,100.00
2018-12-06T21:25:56.851Z,100.00
2018-12-06T21:28:25.300Z,100.00
2018-12-06T21:30:53.628Z,100.00
2018-12-06T21:33:21.949Z,100.00
2018-12-06T21:35:50.304Z,100.00
2018-12-06T21:38:18.622Z,100.00
2018-12-06T21:40:46.960Z,100.00
2018-12-06T21:43:15.276Z,100.00
2018-12-06T21:45:43.597Z,100.00
2018-12-06T21:48:11.917Z,100.00
2018-12-06T21:50:40.319Z,100.00
2018-12-06T21:53:08.692Z,100.00
2018-12-06T21:55:37.000Z,100.00
2018-12-06T21:58:05.457Z,100.00
2018-12-06T22:00:33.785Z,100.00
2018-12-06T22:03:02.106Z,100.00
2018-12-06T22:05:31.350Z,100.00
2018-12-06T22:07:59.741Z,100.00
2018-12-06T22:10:28.059Z,100.00
2018-12-06T22:12:56.499Z,100.00
2018-12-06T22:15:24.817Z,100.00
2018-12-06T22:17:53.130Z,100.00
2018-12-06T22:20:21.456Z,100.00
2018-12-06T22:22:49.787Z,100.00
2018-12-06T22:25:18.094Z,100.00
2018-12-06T22:27:46.427Z,100.00
2018-12-06T22:30:14.818Z,100.00
2018-12-06T22:32:43.138Z,100.00
2018-12-06T22:35:11.666Z,100.00
2018-12-06T22:37:39.997Z,100.00
2018-12-06T22:40:08.355Z,100.00
2018-12-06T22:42:36.688Z,100.00
2018-12-06T22:45:22.599Z,100.00
2018-12-06T22:47:51.120Z,100.00
2018-12-06T22:50:19.415Z,100.00
2018-12-06T22:52:47.806Z,100.00
2018-12-06T22:55:16.214Z,100.00
2018-12-06T22:57:44.526Z,100.00
2018-12-06T23:00:14.861Z,100.00
2018-12-06T23:02:43.219Z,100.00
2018-12-06T23:05:11.533Z,100.00
2018-12-06T23:07:39.907Z,100.00
2018-12-06T23:10:08.409Z,100.00
2018-12-06T23:12:36.717Z,100.00
2018-12-06T23:15:05.867Z,100.00
2018-12-06T23:17:34.164Z,100.00
2018-12-06T23:20:02.931Z,100.00
2018-12-06T23:22:31.240Z,100.00
2018-12-06T23:24:59.562Z,100.00
2018-12-06T23:27:27.884Z,100.00
2018-12-06T23:29:56.264Z,100.00
2018-12-06T23:32:24.650Z,100.00
2018-12-06T23:34:53.195Z,100.00
2018-12-06T23:37:21.492Z,100.00
2018-12-06T23:39:49.808Z,100.00
2018-12-06T23:42:18.121Z,100.00
2018-12-06T23:44:46.447Z,100.00
2018-12-06T23:47:14.768Z,100.00
2018-12-06T23:49:43.072Z,100.00
2018-12-06T23:52:11.399Z,100.00
2018-12-06T23:54:39.723Z,100.00
2018-12-06T23:57:08.036Z,100.00
2018-12-06T23:59:36.413Z,100.00
